createdAt,value
2023-05-03T00:01:19.813Z,1.50
2023-05-03T00:05:31.896Z,1.13
2023-05-03T00:09:43.490Z,1.00
2023-05-03T00:13:55.022Z,1.27
2023-05-03T00:18:07.177Z,1.50
2023-05-03T00:22:18.807Z,1.40
2023-05-03T00:26:30.309Z,1.27
2023-05-03T00:30:41.893Z,1.37
2023-05-03T00:34:57.549Z,1.47
2023-05-03T00:39:09.949Z,1.50
2023-05-03T00:43:21.548Z,1.40
2023-05-03T00:47:33.736Z,1.80
2023-05-03T00:51:45.429Z,2.23
2023-05-03T00:55:59.072Z,1.30
2023-05-03T01:00:13.484Z,1.70
2023-05-03T01:04:25.532Z,1.73
2023-05-03T01:08:50.875Z,1.80
2023-05-03T01:13:39.873Z,1.57
2023-05-03T01:17:57.974Z,1.47
2023-05-03T01:22:25.901Z,1.40
2023-05-03T01:26:37.698Z,1.47
2023-05-03T01:30:52.534Z,1.63
2023-05-03T01:35:26.528Z,1.53
2023-05-03T01:39:59.921Z,1.93
2023-05-03T01:44:12.135Z,1.40
2023-05-03T01:48:24.904Z,1.40
2023-05-03T01:52:36.474Z,1.50
2023-05-03T01:56:48.032Z,1.60
2023-05-03T02:01:00.241Z,1.57
2023-05-03T02:05:12.094Z,1.70
2023-05-03T02:09:24.997Z,1.57
2023-05-03T02:13:38.058Z,1.60
2023-05-03T02:17:50.907Z,1.83
2023-05-03T02:22:02.782Z,1.33
2023-05-03T02:26:14.354Z,1.33
2023-05-03T02:30:25.942Z,1.50
2023-05-03T02:34:39.066Z,1.40
2023-05-03T02:38:52.873Z,1.40
2023-05-03T02:43:05.264Z,1.53
2023-05-03T02:47:17.016Z,1.70
2023-05-03T02:51:29.701Z,1.67
2023-05-03T02:55:41.501Z,1.80
2023-05-03T02:59:53.141Z,1.33
2023-05-03T03:04:06.828Z,1.60
2023-05-03T03:08:18.492Z,1.80
2023-05-03T03:12:30.275Z,1.40
2023-05-03T03:16:47.905Z,1.40
2023-05-03T03:20:59.790Z,1.50
2023-05-03T03:25:11.558Z,1.30
2023-05-03T03:29:23.567Z,1.43
2023-05-03T03:33:35.242Z,1.43
2023-05-03T03:37:53.702Z,1.30
2023-05-03T03:42:08.053Z,1.20
2023-05-03T03:46:19.820Z,1.20
2023-05-03T03:50:35.454Z,1.40
2023-05-03T03:54:47.402Z,1.93
2023-05-03T03:58:59.459Z,1.33
2023-05-03T04:03:11.694Z,1.33
2023-05-03T04:07:23.664Z,1.40
2023-05-03T04:11:35.413Z,1.53
2023-05-03T04:15:49.362Z,1.20
2023-05-03T04:20:05.208Z,1.37
2023-05-03T04:24:17.436Z,1.20
2023-05-03T04:28:30.040Z,1.40
2023-05-03T04:32:42.584Z,1.37
2023-05-03T04:36:57.032Z,1.60
2023-05-03T04:41:09.986Z,1.70
2023-05-03T04:45:22.809Z,1.57
2023-05-03T04:49:34.909Z,1.30
2023-05-03T04:53:47.362Z,1.50
2023-05-03T04:58:02.996Z,1.37
2023-05-03T05:02:14.740Z,1.37
2023-05-03T05:06:27.285Z,1.40
2023-05-03T05:10:42.889Z,1.37
2023-05-03T05:14:57.824Z,1.20
2023-05-03T05:19:09.714Z,1.40
2023-05-03T05:23:22.437Z,1.40
2023-05-03T05:27:34.745Z,1.23
2023-05-03T05:31:46.508Z,1.38
2023-05-03T05:35:59.168Z,1.50
2023-05-03T05:40:11.349Z,1.30
2023-05-03T05:44:31.373Z,1.10
2023-05-03T05:48:43.449Z,1.38
2023-05-03T05:52:56.105Z,1.23
2023-05-03T05:57:12.504Z,1.40
2023-05-03T06:01:24.993Z,1.20
2023-05-03T06:05:36.868Z,1.17
2023-05-03T06:09:48.801Z,1.48
2023-05-03T06:14:00.605Z,1.33
2023-05-03T06:18:12.346Z,1.10
2023-05-03T06:22:25.129Z,0.85
2023-05-03T06:26:36.795Z,1.42
2023-05-03T06:30:49.979Z,1.40
2023-05-03T06:35:02.368Z,1.40
2023-05-03T06:39:14.608Z,1.33
2023-05-03T06:43:26.354Z,1.00
2023-05-03T06:47:42.939Z,1.10
2023-05-03T06:51:54.852Z,0.90
2023-05-03T06:56:06.786Z,1.15
2023-05-03T07:00:19.545Z,1.30
2023-05-03T07:04:31.180Z,0.75
2023-05-03T07:08:42.856Z,1.00
2023-05-03T07:12:54.503Z,1.48
2023-05-03T07:17:06.593Z,1.27
2023-05-03T07:21:18.294Z,1.40
2023-05-03T07:25:30.341Z,1.10
2023-05-03T07:29:42.106Z,1.10
2023-05-03T07:33:53.895Z,1.30
2023-05-03T07:38:05.572Z,1.30
2023-05-03T07:42:17.424Z,1.25
2023-05-03T07:46:31.290Z,1.10
2023-05-03T07:50:44.186Z,1.10
2023-05-03T07:54:56.106Z,1.13
2023-05-03T07:59:09.920Z,1.17
2023-05-03T08:03:22.453Z,1.65
2023-05-03T08:07:34.228Z,1.30
2023-05-03T08:11:45.929Z,1.42
2023-05-03T08:15:57.598Z,1.27
2023-05-03T08:20:09.855Z,1.40
2023-05-03T08:24:21.818Z,1.30
2023-05-03T08:28:34.312Z,1.10
2023-05-03T08:32:47.206Z,1.60
2023-05-03T08:36:59.208Z,1.45
2023-05-03T08:41:31.464Z,1.52
2023-05-03T08:45:43.208Z,1.52
2023-05-03T08:49:56.097Z,1.15
2023-05-03T08:54:08.490Z,1.35
2023-05-03T08:58:20.323Z,1.33
2023-05-03T09:02:35.064Z,1.30
2023-05-03T09:06:46.969Z,1.45
2023-05-03T09:10:58.751Z,1.25
2023-05-03T09:15:21.944Z,1.25
2023-05-03T09:19:50.606Z,1.63
2023-05-03T09:24:04.131Z,1.40
2023-05-03T09:28:17.035Z,1.42
2023-05-03T09:32:29.903Z,1.58
2023-05-03T09:36:46.906Z,1.48
2023-05-03T09:40:58.854Z,1.30
2023-05-03T09:45:10.688Z,1.50
2023-05-03T09:49:22.313Z,1.52
2023-05-03T09:53:36.004Z,1.90
2023-05-03T09:57:48.130Z,1.40
2023-05-03T10:02:02.476Z,1.50
2023-05-03T10:06:31.926Z,1.48
2023-05-03T10:10:45.861Z,1.63
2023-05-03T10:15:00.175Z,1.30
2023-05-03T10:19:17.857Z,1.13
2023-05-03T10:23:29.650Z,1.60
2023-05-03T10:27:44.183Z,1.55
2023-05-03T10:31:55.987Z,1.55
2023-05-03T10:36:10.710Z,1.73
2023-05-03T10:40:25.049Z,1.52
2023-05-03T10:44:51.041Z,1.30
2023-05-03T10:49:18.261Z,1.20
2023-05-03T10:53:38.881Z,1.40
2023-05-03T10:57:53.859Z,1.50
2023-05-03T11:02:06.191Z,1.50
2023-05-03T11:06:34.538Z,1.50
2023-05-03T11:10:47.627Z,1.77
2023-05-03T11:14:59.321Z,1.60
2023-05-03T11:19:11.039Z,1.58
2023-05-03T11:23:28.625Z,1.52
2023-05-03T11:27:44.775Z,1.48
2023-05-03T11:31:57.383Z,1.65
2023-05-03T11:36:09.835Z,1.48
2023-05-03T11:40:21.963Z,1.60
2023-05-03T11:44:34.381Z,2.08
2023-05-03T11:48:46.279Z,1.35
2023-05-03T11:52:58.546Z,1.77
2023-05-03T11:57:14.484Z,1.98
2023-05-03T12:01:28.665Z,1.60
2023-05-03T12:05:41.137Z,1.65
2023-05-03T12:10:07.185Z,1.67
2023-05-03T12:14:25.171Z,1.65
2023-05-03T12:18:48.011Z,1.50
2023-05-03T12:23:09.725Z,2.95
2023-05-03T12:27:23.936Z,1.60
2023-05-03T12:31:39.178Z,1.70
2023-05-03T12:35:53.580Z,1.95
2023-05-03T12:40:31.875Z,1.52
2023-05-03T12:44:42.752Z,1.75
2023-05-03T12:48:55.398Z,1.67
2023-05-03T12:53:09.786Z,2.33
2023-05-03T12:57:24.048Z,1.75
2023-05-03T13:02:40.840Z,1.73
2023-05-03T13:06:13.394Z,1.73
2023-05-03T13:10:29.680Z,1.70
2023-05-03T13:14:45.434Z,2.08
2023-05-03T13:18:57.048Z,1.67
2023-05-03T13:23:08.808Z,1.73
2023-05-03T13:27:20.636Z,1.90
2023-05-03T13:31:32.451Z,2.00
2023-05-03T13:35:45.829Z,1.88
2023-05-03T13:39:58.961Z,2.85
2023-05-03T13:44:11.830Z,2.80
2023-05-03T13:48:23.871Z,2.22
2023-05-03T13:52:36.268Z,2.20
2023-05-03T13:56:48.304Z,2.33
2023-05-03T14:01:00.054Z,2.30
2023-05-03T14:05:11.928Z,2.33
2023-05-03T14:09:23.722Z,2.20
2023-05-03T14:13:53.988Z,1.98
2023-05-03T14:18:08.975Z,2.50
2023-05-03T14:22:20.801Z,2.22
2023-05-03T14:26:34.086Z,1.90
2023-05-03T14:30:45.747Z,1.98
2023-05-03T14:34:57.445Z,2.25
2023-05-03T14:39:10.001Z,2.03
2023-05-03T14:43:22.262Z,2.10
2023-05-03T14:47:34.682Z,2.15
2023-05-03T14:51:46.427Z,2.05
2023-05-03T14:55:58.099Z,2.30
2023-05-03T15:00:14.337Z,2.58
2023-05-03T15:04:26.298Z,2.08
2023-05-03T15:08:39.782Z,2.15
2023-05-03T15:12:51.784Z,1.90
2023-05-03T15:17:03.625Z,1.65
2023-05-03T15:21:18.610Z,2.13
2023-05-03T15:25:30.679Z,2.13
2023-05-03T15:29:42.986Z,2.50
2023-05-03T15:33:54.843Z,1.70
2023-05-03T15:38:06.603Z,2.10
2023-05-03T15:42:18.369Z,2.00
2023-05-03T15:46:30.106Z,2.13
2023-05-03T15:50:41.791Z,1.80
2023-05-03T15:54:54.910Z,1.52
2023-05-03T15:59:07.494Z,1.80
2023-05-03T16:03:19.166Z,2.20
2023-05-03T16:07:31.109Z,1.60
2023-05-03T16:11:42.904Z,2.00
2023-05-03T16:15:57.909Z,1.98
2023-05-03T16:20:10.718Z,1.83
2023-05-03T16:24:22.357Z,2.20
2023-05-03T16:28:34.050Z,2.67
2023-05-03T16:32:46.734Z,1.90
2023-05-03T16:36:58.502Z,1.90
2023-05-03T16:41:10.076Z,2.15
2023-05-03T16:45:21.697Z,1.90
2023-05-03T16:49:34.280Z,2.30
2023-05-03T16:53:46.711Z,1.83
2023-05-03T16:57:58.374Z,1.88
2023-05-03T17:02:11.000Z,1.92
2023-05-03T17:06:22.592Z,1.88
2023-05-03T17:10:36.431Z,1.80
2023-05-03T17:14:48.061Z,2.30
2023-05-03T17:18:59.700Z,2.38
2023-05-03T17:23:11.287Z,2.05
2023-05-03T17:27:24.283Z,2.50
2023-05-03T17:31:35.961Z,2.13
2023-05-03T17:35:47.559Z,2.20
2023-05-03T17:39:59.107Z,2.20
2023-05-03T17:44:10.713Z,2.10
2023-05-03T17:48:22.221Z,2.00
2023-05-03T17:52:33.759Z,2.53
2023-05-03T17:56:45.382Z,2.03
2023-05-03T18:00:57.507Z,1.70
2023-05-03T18:05:10.030Z,2.42
2023-05-03T18:09:21.608Z,1.90
2023-05-03T18:13:33.638Z,2.10
2023-05-03T18:17:45.342Z,2.05
2023-05-03T18:21:56.936Z,2.05
2023-05-03T18:26:08.588Z,1.85
2023-05-03T18:30:20.210Z,2.10
2023-05-03T18:34:33.119Z,2.17
2023-05-03T18:38:47.193Z,2.10
2023-05-03T18:42:58.784Z,2.08
2023-05-03T18:47:12.855Z,1.83
2023-05-03T18:51:24.519Z,1.90
2023-05-03T18:55:36.290Z,1.55
2023-05-03T19:00:07.892Z,1.80
2023-05-03T19:04:19.543Z,1.80
2023-05-03T19:08:31.668Z,2.03
2023-05-03T19:12:44.658Z,2.80
2023-05-03T19:16:56.496Z,2.75
2023-05-03T19:21:08.819Z,2.65
2023-05-03T19:25:20.721Z,2.80
2023-05-03T19:29:32.468Z,3.15
2023-05-03T19:33:44.059Z,2.95
2023-05-03T19:37:56.073Z,3.10
2023-05-03T19:42:08.941Z,3.00
2023-05-03T19:46:20.880Z,2.45
2023-05-03T19:50:35.637Z,2.42
2023-05-03T19:54:47.240Z,3.00
2023-05-03T19:58:58.948Z,2.80
2023-05-03T20:03:11.130Z,2.90
2023-05-03T20:07:22.989Z,2.85
2023-05-03T20:11:34.751Z,3.10
2023-05-03T20:15:47.171Z,3.28
2023-05-03T20:20:12.135Z,3.05
2023-05-03T20:24:23.942Z,2.80
2023-05-03T20:28:35.667Z,2.75
2023-05-03T20:32:47.516Z,3.50
2023-05-03T20:36:59.229Z,2.97
2023-05-03T20:41:10.848Z,3.20
2023-05-03T20:45:22.553Z,3.47
2023-05-03T20:49:34.831Z,3.35
2023-05-03T20:53:46.451Z,3.30
2023-05-03T20:57:58.202Z,3.47
2023-05-03T21:02:10.054Z,3.38
2023-05-03T21:06:21.770Z,3.30
2023-05-03T21:10:33.405Z,3.08
2023-05-03T21:14:45.128Z,3.03
2023-05-03T21:18:56.709Z,3.00
2023-05-03T21:23:08.379Z,3.42
2023-05-03T21:27:22.159Z,3.70
2023-05-03T21:31:33.803Z,3.47
2023-05-03T21:35:45.474Z,3.40
2023-05-03T21:40:01.948Z,3.85
2023-05-03T21:44:14.417Z,4.07
2023-05-03T21:48:26.494Z,3.72
2023-05-03T21:52:38.280Z,3.92
2023-05-03T21:56:50.295Z,4.22
2023-05-03T22:01:02.116Z,4.38
2023-05-03T22:05:14.207Z,4.00
2023-05-03T22:09:25.914Z,4.47
2023-05-03T22:13:49.743Z,5.30
2023-05-03T22:18:06.437Z,4.20
2023-05-03T22:22:18.074Z,3.83
2023-05-03T22:26:29.901Z,4.93
2023-05-03T22:30:41.757Z,4.72
2023-05-03T22:34:53.431Z,4.53
2023-05-03T22:39:05.770Z,4.53
2023-05-03T22:43:17.476Z,4.90
2023-05-03T22:47:29.322Z,4.87
2023-05-03T22:51:41.200Z,5.10
2023-05-03T22:56:01.385Z,4.83
2023-05-03T23:00:13.376Z,4.73
2023-05-03T23:04:24.909Z,4.73
2023-05-03T23:08:36.513Z,5.03
2023-05-03T23:12:48.115Z,5.47
2023-05-03T23:16:59.711Z,4.20
2023-05-03T23:21:11.392Z,4.87
2023-05-03T23:25:23.034Z,4.50
2023-05-03T23:29:34.697Z,4.85
2023-05-03T23:33:46.883Z,4.73
2023-05-03T23:37:58.497Z,5.03
2023-05-03T23:42:10.497Z,4.73
2023-05-03T23:46:22.122Z,4.60
2023-05-03T23:50:33.781Z,4.80
2023-05-03T23:54:45.426Z,4.93
2023-05-03T23:58:57.060Z,4.77
